sensor_id;sensor_type;location;lat;lon;timestamp;P1;durP1;ratioP1;P2;durP2;ratioP2
43771;SDS011;59066;54.782;32.024;2023-02-15T00:00:12;2.85;;;0.90;;
43771;SDS011;59066;54.782;32.024;2023-02-15T00:02:39;3.50;;;0.90;;
43771;SDS011;59066;54.782;32.024;2023-02-15T00:05:07;2.70;;;0.80;;
43771;SDS011;59066;54.782;32.024;2023-02-15T00:07:35;4.75;;;1.27;;
43771;SDS011;59066;54.782;32.024;2023-02-15T00:10:03;2.92;;;1.40;;
43771;SDS011;59066;54.782;32.024;2023-02-15T00:12:31;1.15;;;0.93;;
43771;SDS011;59066;54.782;32.024;2023-02-15T00:14:59;2.33;;;1.00;;
43771;SDS011;59066;54.782;32.024;2023-02-15T00:17:27;3.10;;;1.00;;
43771;SDS011;59066;54.782;32.024;2023-02-15T00:19:55;1.70;;;0.90;;
43771;SDS011;59066;54.782;32.024;2023-02-15T00:22:22;5.80;;;1.10;;
43771;SDS011;59066;54.782;32.024;2023-02-15T00:24:50;4.30;;;1.75;;
43771;SDS011;59066;54.782;32.024;2023-02-15T00:27:17;3.45;;;1.10;;
43771;SDS011;59066;54.782;32.024;2023-02-15T00:29:46;3.33;;;1.33;;
43771;SDS011;59066;54.782;32.024;2023-02-15T00:32:15;3.58;;;1.40;;
43771;SDS011;59066;54.782;32.024;2023-02-15T00:34:42;3.00;;;1.60;;
43771;SDS011;59066;54.782;32.024;2023-02-15T00:37:10;1.98;;;0.98;;
43771;SDS011;59066;54.782;32.024;2023-02-15T00:39:37;2.25;;;1.10;;
43771;SDS011;59066;54.782;32.024;2023-02-15T00:42:04;2.63;;;0.90;;
43771;SDS011;59066;54.782;32.024;2023-02-15T00:44:32;1.23;;;0.82;;
43771;SDS011;59066;54.782;32.024;2023-02-15T00:46:59;2.90;;;1.00;;
43771;SDS011;59066;54.782;32.024;2023-02-15T00:49:27;1.85;;;0.85;;
43771;SDS011;59066;54.782;32.024;2023-02-15T00:51:54;4.00;;;1.10;;
43771;SDS011;59066;54.782;32.024;2023-02-15T00:54:22;3.90;;;1.02;;
43771;SDS011;59066;54.782;32.024;2023-02-15T00:56:49;4.88;;;1.92;;
43771;SDS011;59066;54.782;32.024;2023-02-15T00:59:16;1.33;;;1.10;;
43771;SDS011;59066;54.782;32.024;2023-02-15T01:01:44;4.03;;;1.27;;
43771;SDS011;59066;54.782;32.024;2023-02-15T01:04:11;2.45;;;1.20;;
43771;SDS011;59066;54.782;32.024;2023-02-15T01:06:39;4.35;;;1.77;;
43771;SDS011;59066;54.782;32.024;2023-02-15T01:09:08;2.58;;;1.15;;
43771;SDS011;59066;54.782;32.024;2023-02-15T01:11:36;2.55;;;1.27;;
43771;SDS011;59066;54.782;32.024;2023-02-15T01:14:03;3.45;;;1.20;;
43771;SDS011;59066;54.782;32.024;2023-02-15T01:16:32;2.97;;;1.40;;
43771;SDS011;59066;54.782;32.024;2023-02-15T01:18:59;3.88;;;1.98;;
43771;SDS011;59066;54.782;32.024;2023-02-15T01:21:30;1.67;;;1.10;;
43771;SDS011;59066;54.782;32.024;2023-02-15T01:24:01;6.38;;;1.85;;
43771;SDS011;59066;54.782;32.024;2023-02-15T01:26:29;3.25;;;1.40;;
43771;SDS011;59066;54.782;32.024;2023-02-15T01:28:57;6.60;;;1.48;;
43771;SDS011;59066;54.782;32.024;2023-02-15T01:31:25;7.03;;;1.95;;
43771;SDS011;59066;54.782;32.024;2023-02-15T01:33:52;4.60;;;1.60;;
43771;SDS011;59066;54.782;32.024;2023-02-15T01:36:19;3.45;;;1.58;;
43771;SDS011;59066;54.782;32.024;2023-02-15T01:38:47;3.92;;;1.55;;
43771;SDS011;59066;54.782;32.024;2023-02-15T01:41:16;3.72;;;1.42;;
43771;SDS011;59066;54.782;32.024;2023-02-15T01:43:55;3.95;;;1.30;;
43771;SDS011;59066;54.782;32.024;2023-02-15T01:46:40;2.53;;;1.35;;
43771;SDS011;59066;54.782;32.024;2023-02-15T01:49:19;2.80;;;1.33;;
43771;SDS011;59066;54.782;32.024;2023-02-15T01:51:51;3.22;;;1.50;;
43771;SDS011;59066;54.782;32.024;2023-02-15T01:54:25;6.18;;;1.70;;
43771;SDS011;59066;54.782;32.024;2023-02-15T01:56:58;4.57;;;2.03;;
43771;SDS011;59066;54.782;32.024;2023-02-15T01:59:30;2.58;;;1.60;;
43771;SDS011;59066;54.782;32.024;2023-02-15T02:01:59;3.92;;;1.67;;
43771;SDS011;59066;54.782;32.024;2023-02-15T02:04:38;2.00;;;1.40;;
43771;SDS011;59066;54.782;32.024;2023-02-15T02:07:09;2.55;;;1.30;;
43771;SDS011;59066;54.782;32.024;2023-02-15T02:09:39;3.83;;;1.58;;
43771;SDS011;59066;54.782;32.024;2023-02-15T02:12:07;3.50;;;1.20;;
43771;SDS011;59066;54.782;32.024;2023-02-15T02:14:38;2.47;;;1.23;;
43771;SDS011;59066;54.782;32.024;2023-02-15T02:34:33;2.20;;;1.20;;
43771;SDS011;59066;54.782;32.024;2023-02-15T02:37:12;3.30;;;1.30;;
43771;SDS011;59066;54.782;32.024;2023-02-15T02:42:43;2.60;;;1.35;;
43771;SDS011;59066;54.782;32.024;2023-02-15T02:48:07;1.10;;;1.00;;
43771;SDS011;59066;54.782;32.024;2023-02-15T02:50:55;4.78;;;1.30;;
43771;SDS011;59066;54.782;32.024;2023-02-15T02:53:22;2.53;;;1.13;;
43771;SDS011;59066;54.782;32.024;2023-02-15T02:55:54;3.60;;;1.08;;
43771;SDS011;59066;54.782;32.024;2023-02-15T03:00:56;5.20;;;1.40;;
43771;SDS011;59066;54.782;32.024;2023-02-15T03:03:35;4.20;;;1.42;;
43771;SDS011;59066;54.782;32.024;2023-02-15T03:06:11;2.35;;;1.30;;
43771;SDS011;59066;54.782;32.024;2023-02-15T03:08:51;3.30;;;1.20;;
43771;SDS011;59066;54.782;32.024;2023-02-15T03:11:28;2.50;;;1.40;;
43771;SDS011;59066;54.782;32.024;2023-02-15T03:13:57;3.78;;;3.35;;
43771;SDS011;59066;54.782;32.024;2023-02-15T03:16:26;3.03;;;1.20;;
43771;SDS011;59066;54.782;32.024;2023-02-15T03:21:49;3.47;;;0.88;;
43771;SDS011;59066;54.782;32.024;2023-02-15T03:24:37;1.67;;;1.10;;
43771;SDS011;59066;54.782;32.024;2023-02-15T03:27:11;3.13;;;1.20;;
43771;SDS011;59066;54.782;32.024;2023-02-15T03:29:45;4.25;;;1.23;;
43771;SDS011;59066;54.782;32.024;2023-02-15T03:32:16;3.45;;;1.25;;
43771;SDS011;59066;54.782;32.024;2023-02-15T03:34:46;5.57;;;1.75;;
43771;SDS011;59066;54.782;32.024;2023-02-15T03:39:49;3.45;;;1.17;;
43771;SDS011;59066;54.782;32.024;2023-02-15T03:42:31;3.03;;;1.60;;
43771;SDS011;59066;54.782;32.024;2023-02-15T03:45:10;3.10;;;1.52;;
43771;SDS011;59066;54.782;32.024;2023-02-15T03:47:43;2.00;;;1.35;;
43771;SDS011;59066;54.782;32.024;2023-02-15T03:50:20;4.50;;;1.75;;
43771;SDS011;59066;54.782;32.024;2023-02-15T03:53:14;4.95;;;1.83;;
43771;SDS011;59066;54.782;32.024;2023-02-15T03:55:54;8.27;;;3.35;;
43771;SDS011;59066;54.782;32.024;2023-02-15T03:58:22;11.77;;;3.53;;
43771;SDS011;59066;54.782;32.024;2023-02-15T04:04:25;5.13;;;2.30;;
43771;SDS011;59066;54.782;32.024;2023-02-15T04:07:04;8.25;;;2.92;;
43771;SDS011;59066;54.782;32.024;2023-02-15T04:09:35;6.45;;;2.55;;
43771;SDS011;59066;54.782;32.024;2023-02-15T04:12:21;8.43;;;3.22;;
43771;SDS011;59066;54.782;32.024;2023-02-15T04:14:49;4.05;;;2.33;;
43771;SDS011;59066;54.782;32.024;2023-02-15T04:17:36;7.53;;;2.40;;
43771;SDS011;59066;54.782;32.024;2023-02-15T04:20:04;4.30;;;2.30;;
43771;SDS011;59066;54.782;32.024;2023-02-15T04:22:51;5.57;;;1.75;;
43771;SDS011;59066;54.782;32.024;2023-02-15T04:25:37;5.57;;;1.73;;
43771;SDS011;59066;54.782;32.024;2023-02-15T04:28:05;4.40;;;2.00;;
43771;SDS011;59066;54.782;32.024;2023-02-15T04:30:34;3.40;;;2.08;;
43771;SDS011;59066;54.782;32.024;2023-02-15T04:33:01;8.73;;;2.70;;
43771;SDS011;59066;54.782;32.024;2023-02-15T04:35:29;9.38;;;3.17;;
43771;SDS011;59066;54.782;32.024;2023-02-15T04:37:58;14.52;;;4.60;;
43771;SDS011;59066;54.782;32.024;2023-02-15T04:40:25;21.70;;;7.75;;
43771;SDS011;59066;54.782;32.024;2023-02-15T04:42:53;20.65;;;6.72;;
43771;SDS011;59066;54.782;32.024;2023-02-15T04:45:20;13.13;;;4.95;;
43771;SDS011;59066;54.782;32.024;2023-02-15T04:47:49;17.75;;;6.43;;
43771;SDS011;59066;54.782;32.024;2023-02-15T04:50:16;7.90;;;3.25;;
43771;SDS011;59066;54.782;32.024;2023-02-15T04:52:44;13.32;;;5.20;;
43771;SDS011;59066;54.782;32.024;2023-02-15T04:55:12;15.93;;;4.40;;
43771;SDS011;59066;54.782;32.024;2023-02-15T04:57:39;9.32;;;3.15;;
43771;SDS011;59066;54.782;32.024;2023-02-15T05:00:07;12.80;;;4.05;;
43771;SDS011;59066;54.782;32.024;2023-02-15T05:02:35;11.00;;;3.45;;
43771;SDS011;59066;54.782;32.024;2023-02-15T05:05:03;12.32;;;3.65;;
43771;SDS011;59066;54.782;32.024;2023-02-15T05:07:31;11.27;;;3.53;;
43771;SDS011;59066;54.782;32.024;2023-02-15T05:09:59;13.43;;;4.45;;
43771;SDS011;59066;54.782;32.024;2023-02-15T05:12:27;19.73;;;7.85;;
43771;SDS011;59066;54.782;32.024;2023-02-15T05:14:54;17.17;;;7.32;;
43771;SDS011;59066;54.782;32.024;2023-02-15T05:17:22;19.98;;;7.13;;
43771;SDS011;59066;54.782;32.024;2023-02-15T05:19:49;9.02;;;3.50;;
43771;SDS011;59066;54.782;32.024;2023-02-15T05:22:17;14.35;;;5.57;;
43771;SDS011;59066;54.782;32.024;2023-02-15T05:24:44;12.80;;;5.65;;
43771;SDS011;59066;54.782;32.024;2023-02-15T05:27:30;12.23;;;5.25;;
43771;SDS011;59066;54.782;32.024;2023-02-15T05:30:15;12.55;;;4.30;;
43771;SDS011;59066;54.782;32.024;2023-02-15T05:32:43;19.77;;;6.00;;
43771;SDS011;59066;54.782;32.024;2023-02-15T05:35:12;6.70;;;2.75;;
43771;SDS011;59066;54.782;32.024;2023-02-15T05:37:43;18.25;;;7.95;;
43771;SDS011;59066;54.782;32.024;2023-02-15T05:40:12;21.15;;;6.78;;
43771;SDS011;59066;54.782;32.024;2023-02-15T05:42:40;15.52;;;5.35;;
43771;SDS011;59066;54.782;32.024;2023-02-15T05:45:08;13.13;;;4.10;;
43771;SDS011;59066;54.782;32.024;2023-02-15T05:47:35;16.23;;;5.97;;
43771;SDS011;59066;54.782;32.024;2023-02-15T05:50:03;10.32;;;5.45;;
43771;SDS011;59066;54.782;32.024;2023-02-15T05:52:35;21.10;;;7.32;;
43771;SDS011;59066;54.782;32.024;2023-02-15T05:55:03;17.92;;;9.55;;
43771;SDS011;59066;54.782;32.024;2023-02-15T05:57:31;36.13;;;11.80;;
43771;SDS011;59066;54.782;32.024;2023-02-15T06:00:00;24.55;;;9.82;;
43771;SDS011;59066;54.782;32.024;2023-02-15T06:02:37;47.13;;;20.83;;
43771;SDS011;59066;54.782;32.024;2023-02-15T06:05:05;12.65;;;6.80;;
43771;SDS011;59066;54.782;32.024;2023-02-15T06:07:33;25.42;;;10.48;;
43771;SDS011;59066;54.782;32.024;2023-02-15T06:10:01;36.60;;;15.82;;
43771;SDS011;59066;54.782;32.024;2023-02-15T06:12:29;20.38;;;8.70;;
43771;SDS011;59066;54.782;32.024;2023-02-15T06:14:57;28.42;;;13.85;;
43771;SDS011;59066;54.782;32.024;2023-02-15T06:17:25;22.52;;;11.57;;
43771;SDS011;59066;54.782;32.024;2023-02-15T06:19:52;15.65;;;9.40;;
43771;SDS011;59066;54.782;32.024;2023-02-15T06:22:21;19.88;;;12.88;;
43771;SDS011;59066;54.782;32.024;2023-02-15T06:24:48;24.48;;;12.55;;
43771;SDS011;59066;54.782;32.024;2023-02-15T06:27:16;6.95;;;4.85;;
43771;SDS011;59066;54.782;32.024;2023-02-15T06:29:43;18.60;;;11.35;;
43771;SDS011;59066;54.782;32.024;2023-02-15T06:32:11;20.80;;;15.88;;
43771;SDS011;59066;54.782;32.024;2023-02-15T06:34:38;22.35;;;14.88;;
43771;SDS011;59066;54.782;32.024;2023-02-15T06:37:05;22.95;;;18.35;;
43771;SDS011;59066;54.782;32.024;2023-02-15T06:39:34;18.33;;;13.23;;
43771;SDS011;59066;54.782;32.024;2023-02-15T06:42:03;16.98;;;12.15;;
43771;SDS011;59066;54.782;32.024;2023-02-15T06:44:31;18.15;;;13.23;;
43771;SDS011;59066;54.782;32.024;2023-02-15T06:46:58;21.08;;;16.90;;
43771;SDS011;59066;54.782;32.024;2023-02-15T06:49:25;22.13;;;18.23;;
43771;SDS011;59066;54.782;32.024;2023-02-15T06:51:53;17.08;;;14.65;;
43771;SDS011;59066;54.782;32.024;2023-02-15T06:54:20;19.88;;;17.05;;
43771;SDS011;59066;54.782;32.024;2023-02-15T06:56:48;33.40;;;29.80;;
43771;SDS011;59066;54.782;32.024;2023-02-15T06:59:16;29.45;;;24.50;;
43771;SDS011;59066;54.782;32.024;2023-02-15T07:01:43;33.72;;;27.85;;
43771;SDS011;59066;54.782;32.024;2023-02-15T07:04:11;22.15;;;17.05;;
43771;SDS011;59066;54.782;32.024;2023-02-15T07:06:38;12.38;;;9.40;;
43771;SDS011;59066;54.782;32.024;2023-02-15T07:09:07;10.52;;;6.05;;
43771;SDS011;59066;54.782;32.024;2023-02-15T07:11:34;8.45;;;3.72;;
43771;SDS011;59066;54.782;32.024;2023-02-15T07:14:20;7.60;;;3.03;;
43771;SDS011;59066;54.782;32.024;2023-02-15T07:16:47;8.43;;;3.30;;
43771;SDS011;59066;54.782;32.024;2023-02-15T07:19:15;4.78;;;2.80;;
43771;SDS011;59066;54.782;32.024;2023-02-15T07:21:43;5.82;;;3.00;;
43771;SDS011;59066;54.782;32.024;2023-02-15T07:24:12;9.38;;;2.95;;
43771;SDS011;59066;54.782;32.024;2023-02-15T07:26:40;6.40;;;3.30;;
43771;SDS011;59066;54.782;32.024;2023-02-15T07:29:08;5.55;;;2.85;;
43771;SDS011;59066;54.782;32.024;2023-02-15T07:31:35;6.13;;;2.55;;
43771;SDS011;59066;54.782;32.024;2023-02-15T07:34:06;3.92;;;2.28;;
43771;SDS011;59066;54.782;32.024;2023-02-15T07:36:35;4.65;;;2.45;;
43771;SDS011;59066;54.782;32.024;2023-02-15T07:39:03;4.85;;;2.45;;
43771;SDS011;59066;54.782;32.024;2023-02-15T07:41:30;6.13;;;2.30;;
43771;SDS011;59066;54.782;32.024;2023-02-15T07:43:58;2.30;;;1.95;;
43771;SDS011;59066;54.782;32.024;2023-02-15T07:46:25;5.28;;;2.53;;
43771;SDS011;59066;54.782;32.024;2023-02-15T07:48:57;6.13;;;2.40;;
43771;SDS011;59066;54.782;32.024;2023-02-15T07:51:24;7.10;;;2.97;;
43771;SDS011;59066;54.782;32.024;2023-02-15T07:53:51;6.00;;;2.40;;
43771;SDS011;59066;54.782;32.024;2023-02-15T07:56:19;5.53;;;2.20;;
43771;SDS011;59066;54.782;32.024;2023-02-15T07:58:46;6.00;;;2.53;;
43771;SDS011;59066;54.782;32.024;2023-02-15T08:01:18;8.18;;;2.53;;
43771;SDS011;59066;54.782;32.024;2023-02-15T08:03:47;5.22;;;2.33;;
43771;SDS011;59066;54.782;32.024;2023-02-15T08:06:16;5.25;;;2.38;;
43771;SDS011;59066;54.782;32.024;2023-02-15T08:08:43;4.22;;;2.03;;
43771;SDS011;59066;54.782;32.024;2023-02-15T08:14:03;9.13;;;2.40;;
43771;SDS011;59066;54.782;32.024;2023-02-15T08:21:40;5.00;;;2.60;;
43771;SDS011;59066;54.782;32.024;2023-02-15T08:24:10;6.10;;;2.15;;
43771;SDS011;59066;54.782;32.024;2023-02-15T08:26:38;4.05;;;1.70;;
43771;SDS011;59066;54.782;32.024;2023-02-15T08:29:08;3.67;;;1.80;;
43771;SDS011;59066;54.782;32.024;2023-02-15T08:31:36;6.50;;;2.28;;
43771;SDS011;59066;54.782;32.024;2023-02-15T08:34:04;6.00;;;2.40;;
43771;SDS011;59066;54.782;32.024;2023-02-15T08:36:33;5.50;;;2.47;;
43771;SDS011;59066;54.782;32.024;2023-02-15T08:39:01;6.63;;;1.98;;
43771;SDS011;59066;54.782;32.024;2023-02-15T08:41:32;5.60;;;3.00;;
43771;SDS011;59066;54.782;32.024;2023-02-15T08:44:02;3.67;;;1.95;;
43771;SDS011;59066;54.782;32.024;2023-02-15T08:46:36;6.45;;;2.10;;
43771;SDS011;59066;54.782;32.024;2023-02-15T08:49:06;4.90;;;2.25;;
43771;SDS011;59066;54.782;32.024;2023-02-15T08:51:34;5.32;;;1.80;;
43771;SDS011;59066;54.782;32.024;2023-02-15T08:54:04;3.33;;;2.22;;
43771;SDS011;59066;54.782;32.024;2023-02-15T08:56:34;4.22;;;2.05;;
43771;SDS011;59066;54.782;32.024;2023-02-15T08:59:03;4.18;;;1.63;;
43771;SDS011;59066;54.782;32.024;2023-02-15T09:01:33;8.80;;;2.20;;
43771;SDS011;59066;54.782;32.024;2023-02-15T09:04:04;4.60;;;1.73;;
43771;SDS011;59066;54.782;32.024;2023-02-15T09:06:38;4.32;;;1.80;;
43771;SDS011;59066;54.782;32.024;2023-02-15T09:09:07;7.10;;;2.00;;
43771;SDS011;59066;54.782;32.024;2023-02-15T09:11:36;6.22;;;2.05;;
43771;SDS011;59066;54.782;32.024;2023-02-15T09:14:10;4.60;;;2.05;;
43771;SDS011;59066;54.782;32.024;2023-02-15T09:16:43;7.53;;;2.00;;
43771;SDS011;59066;54.782;32.024;2023-02-15T09:19:19;3.77;;;1.80;;
43771;SDS011;59066;54.782;32.024;2023-02-15T09:21:47;1.63;;;1.10;;
43771;SDS011;59066;54.782;32.024;2023-02-15T09:24:15;4.40;;;1.73;;
43771;SDS011;59066;54.782;32.024;2023-02-15T09:26:45;3.75;;;1.88;;
43771;SDS011;59066;54.782;32.024;2023-02-15T09:29:14;4.30;;;1.88;;
43771;SDS011;59066;54.782;32.024;2023-02-15T09:31:44;8.35;;;1.95;;
43771;SDS011;59066;54.782;32.024;2023-02-15T09:34:13;6.30;;;1.90;;
43771;SDS011;59066;54.782;32.024;2023-02-15T09:36:43;5.43;;;1.85;;
43771;SDS011;59066;54.782;32.024;2023-02-15T09:39:19;6.60;;;2.70;;
43771;SDS011;59066;54.782;32.024;2023-02-15T09:50:42;7.28;;;2.67;;
43771;SDS011;59066;54.782;32.024;2023-02-15T09:53:35;5.68;;;3.00;;
43771;SDS011;59066;54.782;32.024;2023-02-15T09:59:22;4.93;;;2.58;;
43771;SDS011;59066;54.782;32.024;2023-02-15T10:04:50;7.93;;;3.50;;
43771;SDS011;59066;54.782;32.024;2023-02-15T10:12:52;9.32;;;3.38;;
43771;SDS011;59066;54.782;32.024;2023-02-15T10:18:29;6.40;;;2.75;;
43771;SDS011;59066;54.782;32.024;2023-02-15T10:21:11;8.13;;;3.58;;
43771;SDS011;59066;54.782;32.024;2023-02-15T10:24:13;5.47;;;2.95;;
43771;SDS011;59066;54.782;32.024;2023-02-15T10:27:13;7.97;;;3.00;;
43771;SDS011;59066;54.782;32.024;2023-02-15T10:30:02;7.28;;;3.20;;
43771;SDS011;59066;54.782;32.024;2023-02-15T10:38:58;6.20;;;2.97;;
43771;SDS011;59066;54.782;32.024;2023-02-15T10:52:14;7.15;;;3.25;;
43771;SDS011;59066;54.782;32.024;2023-02-15T10:55:28;5.70;;;2.80;;
43771;SDS011;59066;54.782;32.024;2023-02-15T11:04:03;10.93;;;4.10;;
43771;SDS011;59066;54.782;32.024;2023-02-15T11:06:35;7.70;;;3.47;;
43771;SDS011;59066;54.782;32.024;2023-02-15T11:09:12;8.38;;;4.10;;
43771;SDS011;59066;54.782;32.024;2023-02-15T11:11:42;12.10;;;4.40;;
43771;SDS011;59066;54.782;32.024;2023-02-15T11:16:51;10.23;;;4.85;;
43771;SDS011;59066;54.782;32.024;2023-02-15T11:19:26;9.93;;;4.63;;
43771;SDS011;59066;54.782;32.024;2023-02-15T11:22:01;8.27;;;3.70;;
43771;SDS011;59066;54.782;32.024;2023-02-15T11:24:31;12.00;;;5.03;;
43771;SDS011;59066;54.782;32.024;2023-02-15T11:27:15;9.35;;;4.70;;
43771;SDS011;59066;54.782;32.024;2023-02-15T11:32:43;8.98;;;4.65;;
43771;SDS011;59066;54.782;32.024;2023-02-15T11:37:45;9.70;;;3.80;;
43771;SDS011;59066;54.782;32.024;2023-02-15T11:40:22;10.82;;;4.72;;
43771;SDS011;59066;54.782;32.024;2023-02-15T11:42:57;9.63;;;4.70;;
43771;SDS011;59066;54.782;32.024;2023-02-15T11:45:30;10.10;;;5.68;;
43771;SDS011;59066;54.782;32.024;2023-02-15T11:47:59;9.65;;;4.57;;
43771;SDS011;59066;54.782;32.024;2023-02-15T11:50:30;8.75;;;3.90;;
43771;SDS011;59066;54.782;32.024;2023-02-15T11:53:00;9.75;;;4.70;;
43771;SDS011;59066;54.782;32.024;2023-02-15T11:55:31;6.93;;;3.65;;
43771;SDS011;59066;54.782;32.024;2023-02-15T11:58:06;7.10;;;3.40;;
43771;SDS011;59066;54.782;32.024;2023-02-15T12:00:49;6.47;;;3.28;;
43771;SDS011;59066;54.782;32.024;2023-02-15T12:03:22;6.93;;;3.40;;
43771;SDS011;59066;54.782;32.024;2023-02-15T12:06:00;5.40;;;3.35;;
43771;SDS011;59066;54.782;32.024;2023-02-15T12:08:34;5.57;;;2.25;;
43771;SDS011;59066;54.782;32.024;2023-02-15T12:11:07;7.60;;;2.40;;
43771;SDS011;59066;54.782;32.024;2023-02-15T12:16:50;6.95;;;3.63;;
43771;SDS011;59066;54.782;32.024;2023-02-15T12:21:56;5.45;;;2.25;;
43771;SDS011;59066;54.782;32.024;2023-02-15T12:24:28;52.65;;;17.48;;
43771;SDS011;59066;54.782;32.024;2023-02-15T12:29:43;6.90;;;2.85;;
43771;SDS011;59066;54.782;32.024;2023-02-15T12:32:28;6.22;;;3.05;;
43771;SDS011;59066;54.782;32.024;2023-02-15T12:35:13;4.82;;;2.30;;
43771;SDS011;59066;54.782;32.024;2023-02-15T12:37:55;5.18;;;2.25;;
43771;SDS011;59066;54.782;32.024;2023-02-15T12:40:28;5.47;;;2.42;;
43771;SDS011;59066;54.782;32.024;2023-02-15T12:42:57;5.57;;;2.60;;
43771;SDS011;59066;54.782;32.024;2023-02-15T12:45:32;7.55;;;2.30;;
43771;SDS011;59066;54.782;32.024;2023-02-15T12:48:08;6.03;;;1.90;;
43771;SDS011;59066;54.782;32.024;2023-02-15T12:50:39;5.75;;;2.08;;
43771;SDS011;59066;54.782;32.024;2023-02-15T12:53:53;8.27;;;2.92;;
43771;SDS011;59066;54.782;32.024;2023-02-15T12:56:00;3.80;;;2.00;;
43771;SDS011;59066;54.782;32.024;2023-02-15T12:58:30;4.75;;;1.83;;
43771;SDS011;59066;54.782;32.024;2023-02-15T13:01:11;5.55;;;1.63;;
43771;SDS011;59066;54.782;32.024;2023-02-15T13:06:22;6.07;;;2.05;;
43771;SDS011;59066;54.782;32.024;2023-02-15T13:08:51;7.07;;;2.53;;
43771;SDS011;59066;54.782;32.024;2023-02-15T13:11:25;4.47;;;1.70;;
43771;SDS011;59066;54.782;32.024;2023-02-15T13:13:58;6.93;;;2.38;;
43771;SDS011;59066;54.782;32.024;2023-02-15T13:16:34;4.78;;;1.77;;
43771;SDS011;59066;54.782;32.024;2023-02-15T13:21:53;5.55;;;2.67;;
43771;SDS011;59066;54.782;32.024;2023-02-15T13:24:27;5.18;;;2.13;;
43771;SDS011;59066;54.782;32.024;2023-02-15T13:27:04;4.53;;;1.88;;
43771;SDS011;59066;54.782;32.024;2023-02-15T13:29:43;7.95;;;2.65;;
43771;SDS011;59066;54.782;32.024;2023-02-15T13:34:59;5.93;;;2.42;;
43771;SDS011;59066;54.782;32.024;2023-02-15T13:43:19;5.80;;;2.80;;
43771;SDS011;59066;54.782;32.024;2023-02-15T13:46:12;11.95;;;7.05;;
43771;SDS011;59066;54.782;32.024;2023-02-15T13:51:48;12.23;;;7.20;;
43771;SDS011;59066;54.782;32.024;2023-02-15T14:05:27;12.05;;;6.15;;
43771;SDS011;59066;54.782;32.024;2023-02-15T14:21:34;10.80;;;4.93;;
43771;SDS011;59066;54.782;32.024;2023-02-15T14:24:17;12.48;;;6.78;;
43771;SDS011;59066;54.782;32.024;2023-02-15T14:29:59;8.07;;;4.00;;
43771;SDS011;59066;54.782;32.024;2023-02-15T14:32:33;10.13;;;4.40;;
43771;SDS011;59066;54.782;32.024;2023-02-15T14:35:13;11.88;;;4.63;;
43771;SDS011;59066;54.782;32.024;2023-02-15T14:40:36;9.80;;;5.03;;
43771;SDS011;59066;54.782;32.024;2023-02-15T14:54:07;10.95;;;4.78;;
43771;SDS011;59066;54.782;32.024;2023-02-15T14:56:35;5.60;;;2.95;;
43771;SDS011;59066;54.782;32.024;2023-02-15T15:01:51;5.60;;;2.88;;
43771;SDS011;59066;54.782;32.024;2023-02-15T15:04:25;7.20;;;3.05;;
43771;SDS011;59066;54.782;32.024;2023-02-15T15:07:00;6.57;;;3.30;;
43771;SDS011;59066;54.782;32.024;2023-02-15T15:09:36;8.45;;;3.75;;
43771;SDS011;59066;54.782;32.024;2023-02-15T15:14:49;6.60;;;4.03;;
43771;SDS011;59066;54.782;32.024;2023-02-15T15:18:01;9.02;;;4.28;;
43771;SDS011;59066;54.782;32.024;2023-02-15T15:25:50;3.92;;;2.55;;
43771;SDS011;59066;54.782;32.024;2023-02-15T15:31:17;6.72;;;3.30;;
43771;SDS011;59066;54.782;32.024;2023-02-15T15:39:32;6.10;;;2.75;;
43771;SDS011;59066;54.782;32.024;2023-02-15T15:45:19;7.18;;;3.17;;
43771;SDS011;59066;54.782;32.024;2023-02-15T15:48:19;6.60;;;2.85;;
43771;SDS011;59066;54.782;32.024;2023-02-15T15:51:20;10.93;;;5.75;;
43771;SDS011;59066;54.782;32.024;2023-02-15T15:54:00;13.98;;;6.95;;
43771;SDS011;59066;54.782;32.024;2023-02-15T15:56:30;10.38;;;6.05;;
43771;SDS011;59066;54.782;32.024;2023-02-15T15:59:05;11.90;;;4.25;;
43771;SDS011;59066;54.782;32.024;2023-02-15T16:01:43;11.75;;;3.90;;
43771;SDS011;59066;54.782;32.024;2023-02-15T16:04:12;7.22;;;3.70;;
43771;SDS011;59066;54.782;32.024;2023-02-15T16:06:40;6.75;;;3.38;;
43771;SDS011;59066;54.782;32.024;2023-02-15T16:09:09;8.25;;;3.90;;
43771;SDS011;59066;54.782;32.024;2023-02-15T16:11:43;9.50;;;3.35;;
43771;SDS011;59066;54.782;32.024;2023-02-15T16:14:14;9.88;;;4.35;;
43771;SDS011;59066;54.782;32.024;2023-02-15T16:16:51;7.18;;;2.38;;
43771;SDS011;59066;54.782;32.024;2023-02-15T16:19:28;4.30;;;2.05;;
43771;SDS011;59066;54.782;32.024;2023-02-15T16:22:02;6.13;;;2.03;;
43771;SDS011;59066;54.782;32.024;2023-02-15T16:33:05;6.15;;;2.83;;
43771;SDS011;59066;54.782;32.024;2023-02-15T16:35:55;4.95;;;2.65;;
43771;SDS011;59066;54.782;32.024;2023-02-15T16:40:56;5.32;;;2.92;;
43771;SDS011;59066;54.782;32.024;2023-02-15T16:43:25;8.85;;;2.92;;
43771;SDS011;59066;54.782;32.024;2023-02-15T16:46:06;8.63;;;3.20;;
43771;SDS011;59066;54.782;32.024;2023-02-15T16:48:39;8.15;;;3.05;;
43771;SDS011;59066;54.782;32.024;2023-02-15T16:51:10;5.22;;;2.90;;
43771;SDS011;59066;54.782;32.024;2023-02-15T16:53:47;6.10;;;2.83;;
43771;SDS011;59066;54.782;32.024;2023-02-15T16:56:15;4.85;;;2.88;;
43771;SDS011;59066;54.782;32.024;2023-02-15T16:58:55;8.45;;;3.35;;
43771;SDS011;59066;54.782;32.024;2023-02-15T17:01:25;8.20;;;3.65;;
43771;SDS011;59066;54.782;32.024;2023-02-15T17:07:06;7.07;;;2.63;;
43771;SDS011;59066;54.782;32.024;2023-02-15T17:18:04;8.90;;;3.50;;
43771;SDS011;59066;54.782;32.024;2023-02-15T17:20:32;8.95;;;3.90;;
43771;SDS011;59066;54.782;32.024;2023-02-15T17:23:04;8.13;;;4.13;;
43771;SDS011;59066;54.782;32.024;2023-02-15T17:25:34;10.45;;;4.80;;
43771;SDS011;59066;54.782;32.024;2023-02-15T17:28:05;8.20;;;5.20;;
43771;SDS011;59066;54.782;32.024;2023-02-15T17:30:42;8.55;;;4.72;;
43771;SDS011;59066;54.782;32.024;2023-02-15T17:38:30;6.55;;;3.40;;
43771;SDS011;59066;54.782;32.024;2023-02-15T17:40:57;6.75;;;4.18;;
43771;SDS011;59066;54.782;32.024;2023-02-15T17:43:27;7.88;;;3.85;;
43771;SDS011;59066;54.782;32.024;2023-02-15T17:45:56;10.00;;;3.83;;
43771;SDS011;59066;54.782;32.024;2023-02-15T17:48:26;10.15;;;4.28;;
43771;SDS011;59066;54.782;32.024;2023-02-15T17:50:58;10.95;;;4.40;;
43771;SDS011;59066;54.782;32.024;2023-02-15T17:53:31;12.85;;;5.03;;
43771;SDS011;59066;54.782;32.024;2023-02-15T17:55:59;11.32;;;5.03;;
43771;SDS011;59066;54.782;32.024;2023-02-15T17:58:36;12.52;;;4.90;;
43771;SDS011;59066;54.782;32.024;2023-02-15T18:01:11;12.98;;;5.03;;
43771;SDS011;59066;54.782;32.024;2023-02-15T18:04:02;14.55;;;4.85;;
43771;SDS011;59066;54.782;32.024;2023-02-15T18:07:08;17.50;;;6.30;;
43771;SDS011;59066;54.782;32.024;2023-02-15T18:11:36;12.63;;;7.13;;
43771;SDS011;59066;54.782;32.024;2023-02-15T18:14:06;15.02;;;7.80;;
43771;SDS011;59066;54.782;32.024;2023-02-15T18:16:38;13.65;;;6.55;;
43771;SDS011;59066;54.782;32.024;2023-02-15T18:19:10;9.77;;;4.65;;
43771;SDS011;59066;54.782;32.024;2023-02-15T18:21:43;12.30;;;5.60;;
43771;SDS011;59066;54.782;32.024;2023-02-15T18:24:15;10.25;;;4.40;;
43771;SDS011;59066;54.782;32.024;2023-02-15T18:26:45;17.00;;;9.05;;
43771;SDS011;59066;54.782;32.024;2023-02-15T18:29:13;8.60;;;4.63;;
43771;SDS011;59066;54.782;32.024;2023-02-15T18:31:41;14.70;;;6.05;;
43771;SDS011;59066;54.782;32.024;2023-02-15T18:34:32;14.48;;;5.63;;
43771;SDS011;59066;54.782;32.024;2023-02-15T18:37:06;15.75;;;6.00;;